createdAt,value
2022-08-03T00:00:41.673Z,63.21
2022-08-03T00:03:24.818Z,63.51
2022-08-03T00:06:07.998Z,63.75
2022-08-03T00:08:51.182Z,63.95
2022-08-03T00:11:34.465Z,63.53
2022-08-03T00:14:17.616Z,64.08
2022-08-03T00:17:02.310Z,63.68
2022-08-03T00:19:45.411Z,64.26
2022-08-03T00:22:28.613Z,64.63
2022-08-03T00:25:11.735Z,64.82
2022-08-03T00:27:54.810Z,64.63
2022-08-03T00:30:39.112Z,64.53
2022-08-03T00:33:26.384Z,64.67
2022-08-03T00:36:12.418Z,65.03
2022-08-03T00:38:57.483Z,65.55
2022-08-03T00:41:42.930Z,64.60
2022-08-03T00:44:27.187Z,64.99
2022-08-03T00:47:11.101Z,66.20
2022-08-03T00:49:55.825Z,65.94
2022-08-03T00:52:39.178Z,67.54
2022-08-03T00:55:22.585Z,67.88
2022-08-03T00:58:06.816Z,68.76
2022-08-03T01:00:50.023Z,68.68
2022-08-03T01:03:33.168Z,69.89
2022-08-03T01:06:21.246Z,70.10
2022-08-03T01:09:10.789Z,70.90
2022-08-03T01:12:02.496Z,71.21
2022-08-03T01:14:51.547Z,71.14
2022-08-03T01:17:41.602Z,71.26
2022-08-03T01:20:28.538Z,71.31
2022-08-03T01:23:56.551Z,70.94
2022-08-03T01:26:52.311Z,72.11
2022-08-03T01:30:01.514Z,72.09
2022-08-03T01:33:03.000Z,72.53
2022-08-03T01:35:50.204Z,72.37
2022-08-03T01:38:35.340Z,72.76
2022-08-03T01:41:22.368Z,73.15
2022-08-03T01:44:29.665Z,73.28
2022-08-03T01:47:17.009Z,73.17
2022-08-03T01:50:02.649Z,73.34
2022-08-03T01:52:47.365Z,73.76
2022-08-03T01:55:33.346Z,74.59
2022-08-03T01:58:18.590Z,74.67
2022-08-03T02:01:03.762Z,75.28
2022-08-03T02:04:00.119Z,75.53
2022-08-03T02:06:59.942Z,75.88
2022-08-03T02:09:51.153Z,75.48
2022-08-03T02:12:35.591Z,72.70
2022-08-03T02:15:20.720Z,73.45
2022-08-03T02:18:06.386Z,73.01
2022-08-03T02:20:51.845Z,71.54
2022-08-03T02:23:35.130Z,70.61
2022-08-03T02:26:23.500Z,70.55
2022-08-03T02:29:12.708Z,71.43
2022-08-03T02:32:01.653Z,70.60
2022-08-03T02:34:50.412Z,70.29
2022-08-03T02:37:39.166Z,70.77
2022-08-03T02:40:29.678Z,70.11
2022-08-03T02:43:22.860Z,70.76
2022-08-03T02:46:06.736Z,70.56
2022-08-03T02:48:52.776Z,70.09
2022-08-03T02:51:38.855Z,70.47
2022-08-03T02:54:27.875Z,70.28
2022-08-03T02:57:15.004Z,70.85
2022-08-03T03:00:00.185Z,71.18
2022-08-03T03:02:44.472Z,71.72
2022-08-03T03:05:55.201Z,71.33
2022-08-03T03:08:35.705Z,72.86
2022-08-03T03:11:24.762Z,72.97
2022-08-03T03:14:08.822Z,72.00
2022-08-03T03:16:57.950Z,72.38
2022-08-03T03:19:42.916Z,73.13
2022-08-03T03:22:27.331Z,73.31
2022-08-03T03:25:11.424Z,72.86
2022-08-03T03:27:56.660Z,73.17
2022-08-03T03:30:41.010Z,75.08
2022-08-03T03:33:24.513Z,76.78
2022-08-03T03:36:08.565Z,77.91
2022-08-03T03:38:51.694Z,78.99
2022-08-03T03:41:37.018Z,79.49
2022-08-03T03:44:21.692Z,79.95
2022-08-03T03:47:05.131Z,80.01
2022-08-03T03:49:48.472Z,79.85
2022-08-03T03:52:35.828Z,80.52
2022-08-03T03:55:19.750Z,80.10
2022-08-03T03:58:04.186Z,80.56
2022-08-03T04:00:49.867Z,81.07
2022-08-03T04:03:33.010Z,80.20
2022-08-03T04:06:34.188Z,75.78
2022-08-03T04:09:35.283Z,74.37
2022-08-03T04:12:20.867Z,73.86
2022-08-03T04:15:05.791Z,73.38
2022-08-03T04:17:52.006Z,73.37
2022-08-03T04:20:39.303Z,73.28
2022-08-03T04:23:25.823Z,72.91
2022-08-03T04:26:12.061Z,72.51
2022-08-03T04:28:57.251Z,72.36
2022-08-03T04:31:41.223Z,71.92
2022-08-03T04:34:25.726Z,71.29
2022-08-03T04:37:13.253Z,71.48
2022-08-03T04:39:59.743Z,71.08
2022-08-03T04:42:44.272Z,70.99
2022-08-03T04:45:29.031Z,70.40
2022-08-03T04:48:12.223Z,70.17
2022-08-03T04:50:57.014Z,70.42
2022-08-03T04:53:40.233Z,70.38
2022-08-03T04:56:23.360Z,70.86
2022-08-03T04:59:06.441Z,72.52
2022-08-03T05:01:49.632Z,73.35
2022-08-03T05:04:32.856Z,73.70
2022-08-03T05:07:22.708Z,74.38
2022-08-03T05:10:16.240Z,75.71
2022-08-03T05:12:59.884Z,75.17
2022-08-03T05:15:43.424Z,75.68
2022-08-03T05:18:26.557Z,75.47
2022-08-03T05:21:12.504Z,74.64
2022-08-03T05:23:57.092Z,72.94
2022-08-03T05:26:40.170Z,71.24
2022-08-03T05:29:23.321Z,72.02
2022-08-03T05:32:08.426Z,69.91
2022-08-03T05:34:51.652Z,68.68
2022-08-03T05:37:37.529Z,68.26
2022-08-03T05:40:22.200Z,68.25
2022-08-03T05:43:05.263Z,67.41
2022-08-03T05:45:48.390Z,67.78
2022-08-03T05:48:52.114Z,67.30
2022-08-03T05:51:35.585Z,67.04
2022-08-03T05:54:18.673Z,65.82
2022-08-03T05:57:03.199Z,63.99
2022-08-03T05:59:55.571Z,62.27
2022-08-03T06:02:44.245Z,61.53
2022-08-03T06:05:28.413Z,60.61
2022-08-03T06:08:11.717Z,59.51
2022-08-03T06:10:58.657Z,59.22
2022-08-03T06:13:43.518Z,59.08
2022-08-03T06:16:26.636Z,58.07
2022-08-03T06:19:09.992Z,57.99
2022-08-03T06:21:53.109Z,56.38
2022-08-03T06:24:36.640Z,55.52
2022-08-03T06:27:20.664Z,55.07
2022-08-03T06:30:21.645Z,54.04
2022-08-03T06:33:04.929Z,54.25
2022-08-03T06:35:51.478Z,54.31
2022-08-03T06:38:34.539Z,54.52
2022-08-03T06:41:17.790Z,53.22
2022-08-03T06:44:03.079Z,53.19
2022-08-03T06:46:48.933Z,52.45
2022-08-03T06:49:32.100Z,51.37
2022-08-03T06:52:15.210Z,50.57
2022-08-03T06:55:18.378Z,50.22
2022-08-03T06:58:03.348Z,50.08
2022-08-03T07:00:46.892Z,49.50
2022-08-03T07:03:31.457Z,47.60
2022-08-03T07:06:16.209Z,48.18
2022-08-03T07:08:59.860Z,47.47
2022-08-03T07:11:42.930Z,47.40
2022-08-03T07:14:26.239Z,46.11
2022-08-03T07:17:11.495Z,46.48
2022-08-03T07:19:56.995Z,46.51
2022-08-03T07:22:40.269Z,44.89
2022-08-03T07:25:23.874Z,43.67
2022-08-03T07:28:06.962Z,44.50
2022-08-03T07:30:50.234Z,43.39
2022-08-03T07:33:33.362Z,43.05
2022-08-03T07:36:21.102Z,43.01
2022-08-03T07:39:17.533Z,42.75
2022-08-03T07:42:01.115Z,39.55
2022-08-03T07:44:46.548Z,39.58
2022-08-03T07:47:35.416Z,37.39
2022-08-03T07:50:19.114Z,35.29
2022-08-03T07:53:03.567Z,34.12
2022-08-03T07:55:46.671Z,32.03
2022-08-03T07:58:29.741Z,28.56
2022-08-03T08:01:15.153Z,27.78
2022-08-03T08:03:58.433Z,28.22
2022-08-03T08:06:41.489Z,27.74
2022-08-03T08:09:26.045Z,26.18
2022-08-03T08:12:15.685Z,26.63
2022-08-03T08:14:59.295Z,25.44
2022-08-03T08:17:46.844Z,26.04
2022-08-03T08:20:32.130Z,24.43
2022-08-03T08:23:37.744Z,23.81
2022-08-03T08:26:19.857Z,23.91
2022-08-03T08:29:02.986Z,23.47
2022-08-03T08:31:46.116Z,22.54
2022-08-03T08:34:29.399Z,22.30
2022-08-03T08:37:15.508Z,22.88
2022-08-03T08:39:58.711Z,23.92
2022-08-03T08:42:57.837Z,22.70
2022-08-03T08:45:43.406Z,21.91
2022-08-03T08:48:28.109Z,22.59
2022-08-03T08:51:13.562Z,21.78
2022-08-03T08:53:59.810Z,22.17
2022-08-03T08:56:43.388Z,23.22
2022-08-03T08:59:48.931Z,22.86
2022-08-03T09:02:32.194Z,22.31
2022-08-03T09:05:17.310Z,21.85
2022-08-03T09:08:00.623Z,22.76
2022-08-03T09:10:43.797Z,22.25
2022-08-03T09:13:27.180Z,23.34
2022-08-03T09:16:13.775Z,21.92
2022-08-03T09:18:57.103Z,21.64
2022-08-03T09:21:40.223Z,20.90
2022-08-03T09:24:40.837Z,21.29
2022-08-03T09:27:26.139Z,21.24
2022-08-03T09:30:33.404Z,21.37
2022-08-03T09:33:19.525Z,21.82
2022-08-03T09:36:02.628Z,22.16
2022-08-03T09:39:06.409Z,20.68
2022-08-03T09:42:05.275Z,20.63
2022-08-03T09:44:49.893Z,20.49
2022-08-03T09:47:36.444Z,20.22
2022-08-03T09:50:20.997Z,20.13
2022-08-03T09:53:05.259Z,20.12
2022-08-03T09:56:34.595Z,20.06
2022-08-03T09:59:02.217Z,20.04
2022-08-03T10:01:45.390Z,19.27
2022-08-03T10:04:31.696Z,19.02
2022-08-03T10:07:16.576Z,20.26
2022-08-03T10:10:28.817Z,19.26
2022-08-03T10:13:04.998Z,19.35
2022-08-03T10:16:21.197Z,18.54
2022-08-03T10:18:51.704Z,20.66
2022-08-03T10:21:36.842Z,21.08
2022-08-03T10:24:26.672Z,20.41
2022-08-03T10:27:12.173Z,20.59
2022-08-03T10:29:58.697Z,19.56
2022-08-03T10:32:44.497Z,19.94
2022-08-03T10:35:28.283Z,18.73
2022-08-03T10:38:17.893Z,19.13
2022-08-03T10:41:03.497Z,18.90
2022-08-03T10:43:51.826Z,19.17
2022-08-03T10:46:38.370Z,19.31
2022-08-03T10:49:34.002Z,19.29
2022-08-03T10:52:32.440Z,19.84
2022-08-03T10:55:49.339Z,19.45
2022-08-03T10:58:57.430Z,20.68
2022-08-03T11:01:59.867Z,20.51
2022-08-03T11:04:45.338Z,21.11
2022-08-03T11:07:28.413Z,20.56
2022-08-03T11:10:31.685Z,23.25
2022-08-03T11:13:16.995Z,23.85
2022-08-03T11:16:06.527Z,24.29
2022-08-03T11:19:02.745Z,26.26
2022-08-03T11:21:59.998Z,26.96
2022-08-03T11:24:58.568Z,27.40
2022-08-03T11:27:41.664Z,27.68
2022-08-03T11:30:27.587Z,27.12
2022-08-03T11:33:30.781Z,27.37
2022-08-03T11:36:31.909Z,27.90
2022-08-03T11:39:16.711Z,29.32
2022-08-03T11:42:00.306Z,29.29
2022-08-03T11:44:47.515Z,31.50
2022-08-03T11:47:31.428Z,32.07
2022-08-03T11:50:17.265Z,32.71
2022-08-03T11:53:00.416Z,32.12
2022-08-03T11:55:44.478Z,30.93
2022-08-03T11:58:58.059Z,31.90
2022-08-03T12:01:32.378Z,31.48
2022-08-03T12:04:17.375Z,30.92
2022-08-03T12:07:04.485Z,31.36
2022-08-03T12:10:07.717Z,31.95
2022-08-03T12:12:57.051Z,31.75
2022-08-03T12:15:41.385Z,32.38
2022-08-03T12:18:25.370Z,31.83
2022-08-03T12:21:10.573Z,31.34
2022-08-03T12:24:00.763Z,32.75
2022-08-03T12:26:54.511Z,32.03
2022-08-03T12:29:58.626Z,30.92
2022-08-03T12:32:44.998Z,32.21
2022-08-03T12:35:28.128Z,32.45
2022-08-03T12:38:14.931Z,32.42
2022-08-03T12:41:04.828Z,32.59
2022-08-03T12:43:50.066Z,32.63
2022-08-03T12:46:35.034Z,33.13
2022-08-03T12:49:19.243Z,32.76
2022-08-03T12:52:07.244Z,31.62
2022-08-03T12:54:57.156Z,32.31
2022-08-03T12:57:44.694Z,32.94
2022-08-03T13:00:30.097Z,33.67
2022-08-03T13:03:39.640Z,33.52
2022-08-03T13:06:19.784Z,33.93
2022-08-03T13:09:04.979Z,34.06
2022-08-03T13:11:57.869Z,33.47
2022-08-03T13:14:50.145Z,33.23
2022-08-03T13:17:33.288Z,33.69
2022-08-03T13:20:19.028Z,35.26
2022-08-03T13:23:02.238Z,36.13
2022-08-03T13:25:55.515Z,38.77
2022-08-03T13:28:39.351Z,41.56
2022-08-03T13:31:23.908Z,41.48
2022-08-03T13:34:09.992Z,40.58
2022-08-03T13:37:08.863Z,41.91
2022-08-03T13:39:58.957Z,42.21
2022-08-03T13:42:43.570Z,42.01
2022-08-03T13:45:27.565Z,41.53
2022-08-03T13:48:12.304Z,42.99
2022-08-03T13:50:55.447Z,41.72
2022-08-03T13:53:38.549Z,41.32
2022-08-03T13:56:21.711Z,40.83
2022-08-03T13:59:04.895Z,39.82
2022-08-03T14:01:55.536Z,39.94
2022-08-03T14:04:40.317Z,40.15
2022-08-03T14:07:23.521Z,39.65
2022-08-03T14:10:07.608Z,38.60
2022-08-03T14:12:50.819Z,39.19
2022-08-03T14:15:37.481Z,38.89
2022-08-03T14:18:29.168Z,38.83
2022-08-03T14:21:18.538Z,38.83
2022-08-03T14:24:04.807Z,39.08
2022-08-03T14:26:47.933Z,38.16
2022-08-03T14:29:31.109Z,38.01
2022-08-03T14:32:14.332Z,39.02
2022-08-03T14:34:57.527Z,38.70
2022-08-03T14:37:44.567Z,39.59
2022-08-03T14:40:27.889Z,39.62
2022-08-03T14:43:11.221Z,39.38
2022-08-03T14:45:55.303Z,39.57
2022-08-03T14:50:12.597Z,39.14
2022-08-03T14:51:51.371Z,38.99
2022-08-03T14:54:38.415Z,39.20
2022-08-03T14:57:21.986Z,37.76
2022-08-03T15:00:06.686Z,38.80
2022-08-03T15:02:49.847Z,39.09
2022-08-03T15:05:33.066Z,39.27
2022-08-03T15:08:18.800Z,39.70
2022-08-03T15:11:03.718Z,41.17
2022-08-03T15:13:47.945Z,44.45
2022-08-03T15:16:31.116Z,50.14
2022-08-03T15:20:02.842Z,53.43
2022-08-03T15:22:20.684Z,60.13
2022-08-03T15:26:31.998Z,61.45
2022-08-03T15:28:13.481Z,71.10
2022-08-03T15:30:56.574Z,69.82
2022-08-03T15:33:40.063Z,77.30
2022-08-03T15:36:23.203Z,75.46
2022-08-03T15:39:06.912Z,74.67
2022-08-03T15:41:49.987Z,75.49
2022-08-03T15:44:34.475Z,77.91
2022-08-03T15:47:17.802Z,76.19
2022-08-03T15:50:00.882Z,77.39
2022-08-03T15:52:44.020Z,79.16
2022-08-03T15:55:27.299Z,83.48
2022-08-03T15:59:04.155Z,85.42
2022-08-03T16:01:19.432Z,83.82
2022-08-03T16:04:03.074Z,87.41
2022-08-03T16:06:47.813Z,88.00
2022-08-03T16:09:42.388Z,87.62
2022-08-03T16:12:26.892Z,83.61
2022-08-03T16:15:11.395Z,82.51
2022-08-03T16:17:56.542Z,83.23
2022-08-03T16:20:39.803Z,83.61
2022-08-03T16:23:25.637Z,78.59
2022-08-03T16:26:13.659Z,76.36
2022-08-03T16:28:57.136Z,77.29
2022-08-03T16:31:41.551Z,76.32
2022-08-03T16:34:37.240Z,76.35
2022-08-03T16:37:38.224Z,75.09
2022-08-03T16:40:22.494Z,74.85
2022-08-03T16:43:18.581Z,77.29
2022-08-03T16:46:02.774Z,79.92
2022-08-03T16:48:45.913Z,83.33
2022-08-03T16:51:40.409Z,83.63
2022-08-03T16:54:36.151Z,83.67
2022-08-03T16:57:56.651Z,82.87
2022-08-03T17:00:32.977Z,83.97
2022-08-03T17:03:24.211Z,84.08
2022-08-03T17:06:07.895Z,82.18
2022-08-03T17:08:55.510Z,82.87
2022-08-03T17:11:43.893Z,84.82
2022-08-03T17:14:30.115Z,83.03
2022-08-03T17:17:20.628Z,80.17
2022-08-03T17:20:10.276Z,81.04
2022-08-03T17:23:02.007Z,82.00
2022-08-03T17:26:01.814Z,82.87
2022-08-03T17:28:57.703Z,81.84
2022-08-03T17:31:48.868Z,81.04
2022-08-03T17:34:36.626Z,79.26
2022-08-03T17:37:27.101Z,77.75
2022-08-03T17:40:26.347Z,78.58
2022-08-03T17:44:14.106Z,77.58
2022-08-03T17:46:23.392Z,76.03
2022-08-03T17:49:06.938Z,76.64
2022-08-03T17:52:17.510Z,76.25
2022-08-03T17:55:56.725Z,76.00
2022-08-03T17:58:20.937Z,76.07
2022-08-03T18:02:03.319Z,76.67
2022-08-03T18:04:30.075Z,76.28
2022-08-03T18:07:18.911Z,76.94
2022-08-03T18:10:12.066Z,76.75
2022-08-03T18:13:04.878Z,76.68
2022-08-03T18:16:01.724Z,76.89
2022-08-03T18:18:48.573Z,77.45
2022-08-03T18:22:02.188Z,77.21
2022-08-03T18:24:36.159Z,76.38
2022-08-03T18:27:22.677Z,75.72
2022-08-03T18:30:06.888Z,77.91
2022-08-03T18:33:00.337Z,75.62
2022-08-03T18:35:52.783Z,73.92
2022-08-03T18:38:40.640Z,73.27
2022-08-03T18:41:33.334Z,73.25
2022-08-03T18:47:50.559Z,74.41
2022-08-03T18:50:48.272Z,75.40
2022-08-03T18:54:03.010Z,75.66
2022-08-03T18:56:49.298Z,76.36
2022-08-03T18:59:40.300Z,76.42
2022-08-03T19:02:35.936Z,76.70
2022-08-03T19:05:23.416Z,76.20
2022-08-03T19:08:38.195Z,76.22
2022-08-03T19:11:28.185Z,76.91
2022-08-03T19:14:35.929Z,77.18
2022-08-03T19:17:29.492Z,78.47
2022-08-03T19:20:13.883Z,77.72
2022-08-03T19:23:00.363Z,78.87
2022-08-03T19:25:45.923Z,79.46
2022-08-03T19:28:31.278Z,79.79
2022-08-03T19:31:15.712Z,78.97
2022-08-03T19:34:00.491Z,79.27
2022-08-03T19:36:45.073Z,79.44
2022-08-03T19:39:28.479Z,80.02
2022-08-03T19:42:23.343Z,79.85
2022-08-03T19:45:11.396Z,79.22
2022-08-03T19:48:09.488Z,79.47
2022-08-03T19:50:59.164Z,79.03
2022-08-03T19:53:45.241Z,79.51
2022-08-03T19:56:29.572Z,81.14
2022-08-03T19:59:15.488Z,79.79
2022-08-03T20:01:58.631Z,80.31
2022-08-03T20:04:41.979Z,79.79
2022-08-03T20:07:26.678Z,78.80
2022-08-03T20:10:10.272Z,80.24
2022-08-03T20:12:54.019Z,80.59
2022-08-03T20:15:41.414Z,79.80
2022-08-03T20:18:27.897Z,80.61
2022-08-03T20:21:15.831Z,79.81
2022-08-03T20:24:23.784Z,80.06
2022-08-03T20:27:09.778Z,79.63
2022-08-03T20:30:06.797Z,79.98
2022-08-03T20:32:58.330Z,79.02
2022-08-03T20:35:41.917Z,79.70
2022-08-03T20:38:28.969Z,81.44
2022-08-03T20:41:12.707Z,80.67
2022-08-03T20:43:57.618Z,82.00
2022-08-03T20:46:53.080Z,80.82
2022-08-03T20:49:45.930Z,81.88
2022-08-03T20:52:30.664Z,82.38
2022-08-03T20:55:14.662Z,81.64
2022-08-03T20:57:58.471Z,82.31
2022-08-03T21:00:43.464Z,84.62
2022-08-03T21:06:38.924Z,82.01
2022-08-03T21:09:39.816Z,82.82
2022-08-03T21:12:31.919Z,82.03
2022-08-03T21:13:04.675Z,73.38
2022-08-03T21:13:13.617Z,83.42
2022-08-03T21:16:11.483Z,82.71
2022-08-03T21:18:22.278Z,82.96
2022-08-03T21:21:07.536Z,82.33
2022-08-03T21:23:53.742Z,82.46
2022-08-03T21:26:40.463Z,83.12
2022-08-03T21:29:24.826Z,82.74
2022-08-03T21:32:08.536Z,82.79
2022-08-03T21:34:56.436Z,83.74
2022-08-03T21:37:41.526Z,84.46
2022-08-03T21:40:26.114Z,83.67
2022-08-03T21:43:09.567Z,84.10
2022-08-03T21:45:59.234Z,83.82
2022-08-03T21:48:44.868Z,83.66
2022-08-03T21:51:31.159Z,84.45
2022-08-03T21:54:14.772Z,84.50
2022-08-03T21:57:06.587Z,84.48
2022-08-03T21:59:54.513Z,83.73
2022-08-03T22:02:39.213Z,84.12
2022-08-03T22:05:42.591Z,83.91
2022-08-03T22:08:27.517Z,83.46
2022-08-03T22:11:10.942Z,83.80
2022-08-03T22:13:55.497Z,84.09
2022-08-03T22:16:38.650Z,83.92
2022-08-03T22:19:21.785Z,83.81
2022-08-03T22:22:07.681Z,84.22
2022-08-03T22:24:53.920Z,84.23
2022-08-03T22:27:41.021Z,83.92
2022-08-03T22:30:25.855Z,83.58
2022-08-03T22:33:11.902Z,82.68
2022-08-03T22:36:01.534Z,83.11
2022-08-03T22:38:44.778Z,83.08
2022-08-03T22:41:30.837Z,82.68
2022-08-03T22:44:14.186Z,82.40
2022-08-03T22:46:59.695Z,83.33
2022-08-03T22:49:44.403Z,83.93
2022-08-03T22:52:28.746Z,83.61
2022-08-03T22:55:13.699Z,84.31
2022-08-03T22:58:07.767Z,84.74
2022-08-03T23:00:55.895Z,83.59
2022-08-03T23:03:59.782Z,82.90
2022-08-03T23:06:49.173Z,83.02
2022-08-03T23:09:35.197Z,83.67
2022-08-03T23:12:21.092Z,82.78
2022-08-03T23:15:07.781Z,82.86
2022-08-03T23:17:58.103Z,82.22
2022-08-03T23:20:44.771Z,83.19
2022-08-03T23:23:31.059Z,83.89
2022-08-03T23:26:28.305Z,83.63
2022-08-03T23:29:15.459Z,83.04
2022-08-03T23:31:59.548Z,82.90
2022-08-03T23:35:01.501Z,83.83
2022-08-03T23:38:12.250Z,84.34
2022-08-03T23:40:51.487Z,84.95
2022-08-03T23:43:51.837Z,86.13
2022-08-03T23:46:38.493Z,87.57
2022-08-03T23:49:21.958Z,88.08
2022-08-03T23:52:11.198Z,90.10
2022-08-03T23:55:17.480Z,90.08
2022-08-03T23:58:10.756Z,90.93
